createdAt,value
2018-04-27T00:00:33.189Z,5.12
2018-04-27T00:01:33.412Z,5
2018-04-27T00:02:33.142Z,4.97
2018-04-27T00:03:33.390Z,4.91
2018-04-27T00:04:33.373Z,4.9
2018-04-27T00:05:33.365Z,4.83
2018-04-27T00:06:33.089Z,4.85
2018-04-27T00:07:33.327Z,4.75
2018-04-27T00:08:33.315Z,4.76
2018-04-27T00:09:33.064Z,4.68
2018-04-27T00:10:33.033Z,4.64
2018-04-27T00:11:33.281Z,4.64
2018-04-27T00:12:33.007Z,4.56
2018-04-27T00:13:33.252Z,4.58
2018-04-27T00:14:32.981Z,4.53
2018-04-27T00:15:33.262Z,4.46
2018-04-27T00:16:33.212Z,4.44
2018-04-27T00:17:33.195Z,4.4
2018-04-27T00:18:32.925Z,4.36
2018-04-27T00:19:33.167Z,4.36
2018-04-27T00:20:32.904Z,4.39
2018-04-27T00:21:33.140Z,4.21
2018-04-27T00:22:33.150Z,4.3
2018-04-27T00:23:32.857Z,4.2
2018-04-27T00:24:33.120Z,4.17
2018-04-27T00:25:33.083Z,4.2
2018-04-27T00:26:32.844Z,4.21
2018-04-27T00:27:33.061Z,4.07
2018-04-27T00:28:32.785Z,4.1
2018-04-27T00:29:33.032Z,4.04
2018-04-27T00:30:33.018Z,3.93
2018-04-27T00:31:32.743Z,4.04
2018-04-27T00:32:33.203Z,3.99
2018-04-27T00:33:32.711Z,3.96
2018-04-27T00:34:33.136Z,3.94
2018-04-27T00:35:32.425Z,3.86
2018-04-27T00:36:32.931Z,3.93
2018-04-27T00:37:32.662Z,3.86
2018-04-27T00:38:32.643Z,3.84
2018-04-27T00:39:32.888Z,3.76
2018-04-27T00:40:32.613Z,3.79
2018-04-27T00:41:32.870Z,3.74
2018-04-27T00:42:32.845Z,3.72
2018-04-27T00:43:33.055Z,3.81
2018-04-27T00:44:32.820Z,3.66
2018-04-27T00:45:32.800Z,3.71
2018-04-27T00:46:32.526Z,3.51
2018-04-27T00:47:32.778Z,3.61
2018-04-27T00:48:32.517Z,3.51
2018-04-27T00:49:32.486Z,3.45
2018-04-27T00:50:32.471Z,3.53
2018-04-27T00:51:32.471Z,3.51
2018-04-27T00:52:32.700Z,3.54
2018-04-27T00:53:32.684Z,3.43
2018-04-27T00:54:32.894Z,3.4
2018-04-27T00:55:32.139Z,3.42
2018-04-27T00:56:32.645Z,3.48
2018-04-27T00:57:32.366Z,3.34
2018-04-27T00:58:32.651Z,3.4
2018-04-27T00:59:32.824Z,3.29
2018-04-27T01:00:32.324Z,3.32
2018-04-27T01:01:32.569Z,3.24
2018-04-27T01:02:32.559Z,3.24
2018-04-27T01:03:32.537Z,3.29
2018-04-27T01:04:32.533Z,3.23
2018-04-27T01:05:32.505Z,3.2
2018-04-27T01:06:32.488Z,3.23
2018-04-27T01:07:32.221Z,3.21
2018-04-27T01:08:32.205Z,3.2
2018-04-27T01:09:32.453Z,3.27
2018-04-27T01:10:32.177Z,3.2
2018-04-27T01:11:32.419Z,3.21
2018-04-27T01:12:32.144Z,3.2
2018-04-27T01:13:32.395Z,3.21
2018-04-27T01:14:32.374Z,3.2
2018-04-27T01:15:32.104Z,3.13
2018-04-27T01:16:32.556Z,3.13
2018-04-27T01:17:32.339Z,3.17
2018-04-27T01:18:32.318Z,3.03
2018-04-27T01:19:32.305Z,3.06
2018-04-27T01:20:32.026Z,3.02
2018-04-27T01:21:32.013Z,3.05
2018-04-27T01:22:32.256Z,3.09
2018-04-27T01:23:32.254Z,3.03
2018-04-27T01:24:31.973Z,2.99
2018-04-27T01:25:31.953Z,2.95
2018-04-27T01:26:31.940Z,2.96
2018-04-27T01:27:31.927Z,2.93
2018-04-27T01:28:31.907Z,2.98
2018-04-27T01:29:31.637Z,2.98
2018-04-27T01:30:32.137Z,3.01
2018-04-27T01:31:31.862Z,2.96
2018-04-27T01:32:32.107Z,2.85
2018-04-27T01:33:32.094Z,2.9
2018-04-27T01:34:31.816Z,2.93
2018-04-27T01:35:31.806Z,2.85
2018-04-27T01:36:31.786Z,2.9
2018-04-27T01:37:32.035Z,3.01
2018-04-27T01:38:32.022Z,2.91
2018-04-27T01:39:32.044Z,2.91
2018-04-27T01:40:31.726Z,2.9
2018-04-27T01:41:31.971Z,2.87
2018-04-27T01:42:31.963Z,2.83
2018-04-27T01:43:31.944Z,2.81
2018-04-27T01:44:32.536Z,2.91
2018-04-27T01:45:31.915Z,2.8
2018-04-27T01:46:31.635Z,2.84
2018-04-27T01:47:31.887Z,2.78
2018-04-27T01:48:31.862Z,2.87
2018-04-27T01:49:31.333Z,2.9
2018-04-27T01:50:31.833Z,2.8
2018-04-27T01:51:31.818Z,2.83
2018-04-27T01:52:31.826Z,2.8
2018-04-27T01:53:31.529Z,2.83
2018-04-27T01:54:31.785Z,2.78
2018-04-27T01:55:31.763Z,2.83
2018-04-27T01:56:31.743Z,2.78
2018-04-27T01:57:31.469Z,2.78
2018-04-27T01:58:31.716Z,2.77
2018-04-27T01:59:31.439Z,2.73
2018-04-27T02:00:31.678Z,2.78
2018-04-27T02:01:31.629Z,2.78
2018-04-27T02:02:31.135Z,2.76
2018-04-27T02:03:31.637Z,2.8
2018-04-27T02:04:31.619Z,2.76
2018-04-27T02:05:31.825Z,2.78
2018-04-27T02:06:31.616Z,2.73
2018-04-27T02:07:31.574Z,2.78
2018-04-27T02:08:31.313Z,2.66
2018-04-27T02:09:31.544Z,2.69
2018-04-27T02:10:31.526Z,2.8
2018-04-27T02:11:31.508Z,2.72
2018-04-27T02:12:31.713Z,2.76
2018-04-27T02:13:31.478Z,2.73
2018-04-27T02:14:31.225Z,2.81
2018-04-27T02:15:31.455Z,2.8
2018-04-27T02:16:31.173Z,2.72
2018-04-27T02:17:31.190Z,2.69
2018-04-27T02:18:31.146Z,2.62
2018-04-27T02:19:31.426Z,2.63
2018-04-27T02:20:31.114Z,2.69
2018-04-27T02:21:30.843Z,2.66
2018-04-27T02:22:31.084Z,2.59
2018-04-27T02:23:31.338Z,2.63
2018-04-27T02:24:31.051Z,2.63
2018-04-27T02:25:31.294Z,2.72
2018-04-27T02:26:31.283Z,2.62
2018-04-27T02:27:31.006Z,2.66
2018-04-27T02:28:31.271Z,2.7
2018-04-27T02:29:30.999Z,2.62
2018-04-27T02:30:31.219Z,2.54
2018-04-27T02:31:30.945Z,2.66
2018-04-27T02:32:31.188Z,2.54
2018-04-27T02:33:31.185Z,2.63
2018-04-27T02:34:31.157Z,2.62
2018-04-27T02:35:31.156Z,2.52
2018-04-27T02:36:31.130Z,2.58
2018-04-27T02:37:31.109Z,2.59
2018-04-27T02:38:31.115Z,2.52
2018-04-27T02:39:31.080Z,2.62
2018-04-27T02:40:31.072Z,2.55
2018-04-27T02:41:30.533Z,2.49
2018-04-27T02:42:31.032Z,2.58
2018-04-27T02:43:31.031Z,2.54
2018-04-27T02:44:31.005Z,2.6
2018-04-27T02:45:30.732Z,2.52
2018-04-27T02:46:30.710Z,2.54
2018-04-27T02:47:30.967Z,2.54
2018-04-27T02:48:30.677Z,2.55
2018-04-27T02:49:30.685Z,2.52
2018-04-27T02:50:30.649Z,2.55
2018-04-27T02:51:30.657Z,2.54
2018-04-27T02:52:30.620Z,2.58
2018-04-27T02:53:30.615Z,2.51
2018-04-27T02:54:30.593Z,2.62
2018-04-27T02:55:30.585Z,2.59
2018-04-27T02:56:30.299Z,2.55
2018-04-27T02:57:30.807Z,2.55
2018-04-27T02:58:30.797Z,2.59
2018-04-27T02:59:30.254Z,2.55
2018-04-27T03:00:30.758Z,2.59
2018-04-27T03:01:30.776Z,2.55
2018-04-27T03:02:30.466Z,2.58
2018-04-27T03:03:30.712Z,2.67
2018-04-27T03:04:30.269Z,2.54
2018-04-27T03:05:30.696Z,2.58
2018-04-27T03:06:30.403Z,2.63
2018-04-27T03:07:30.652Z,2.54
2018-04-27T03:08:30.636Z,2.67
2018-04-27T03:09:30.619Z,2.66
2018-04-27T03:10:30.654Z,2.65
2018-04-27T03:11:30.582Z,2.6
2018-04-27T03:12:30.566Z,2.69
2018-04-27T03:13:30.299Z,2.69
2018-04-27T03:14:30.537Z,2.67
2018-04-27T03:15:30.519Z,2.72
2018-04-27T03:16:30.530Z,2.77
2018-04-27T03:17:30.513Z,2.65
2018-04-27T03:18:30.478Z,2.67
2018-04-27T03:19:30.468Z,2.65
2018-04-27T03:20:30.189Z,2.73
2018-04-27T03:21:30.429Z,2.76
2018-04-27T03:22:30.624Z,2.78
2018-04-27T03:23:30.411Z,2.67
2018-04-27T03:24:30.141Z,2.7
2018-04-27T03:25:30.449Z,2.67
2018-04-27T03:26:30.097Z,2.67
2018-04-27T03:27:30.337Z,2.67
2018-04-27T03:28:30.325Z,2.69
2018-04-27T03:29:30.052Z,2.66
2018-04-27T03:30:30.313Z,2.69
2018-04-27T03:31:30.051Z,2.72
2018-04-27T03:32:30.265Z,2.77
2018-04-27T03:33:29.987Z,2.7
2018-04-27T03:34:29.980Z,2.62
2018-04-27T03:35:30.214Z,2.67
2018-04-27T03:36:30.202Z,2.69
2018-04-27T03:37:30.209Z,2.72
2018-04-27T03:38:30.168Z,2.66
2018-04-27T03:39:30.157Z,2.66
2018-04-27T03:40:30.135Z,2.69
2018-04-27T03:41:29.866Z,2.62
2018-04-27T03:42:30.111Z,2.76
2018-04-27T03:43:30.094Z,2.77
2018-04-27T03:44:29.836Z,2.66
2018-04-27T03:45:30.206Z,2.69
2018-04-27T03:46:29.530Z,2.76
2018-04-27T03:47:30.044Z,2.72
2018-04-27T03:48:30.023Z,2.7
2018-04-27T03:49:29.744Z,2.62
2018-04-27T03:50:29.466Z,2.76
2018-04-27T03:51:29.931Z,2.73
2018-04-27T03:52:29.979Z,2.77
2018-04-27T03:53:29.681Z,2.77
2018-04-27T03:54:29.920Z,2.81
2018-04-27T03:55:29.658Z,2.85
2018-04-27T03:56:29.896Z,2.87
2018-04-27T03:57:29.884Z,2.85
2018-04-27T03:58:29.863Z,2.83
2018-04-27T03:59:29.328Z,2.98
2018-04-27T04:00:29.574Z,2.9
2018-04-27T04:01:29.819Z,2.93
2018-04-27T04:02:29.546Z,2.99
2018-04-27T04:03:29.799Z,3.03
2018-04-27T04:04:29.771Z,3.01
2018-04-27T04:05:29.510Z,3.03
2018-04-27T04:06:29.221Z,3.08
2018-04-27T04:07:29.466Z,3.06
2018-04-27T04:08:29.457Z,3.14
2018-04-27T04:09:29.439Z,3.16
2018-04-27T04:10:29.686Z,3.14
2018-04-27T04:11:29.147Z,3.17
2018-04-27T04:12:29.653Z,3.19
2018-04-27T04:13:29.633Z,3.17
2018-04-27T04:14:29.617Z,3.19
2018-04-27T04:15:29.825Z,3.26
2018-04-27T04:16:29.601Z,3.21
2018-04-27T04:17:29.570Z,3.3
2018-04-27T04:18:29.354Z,3.43
2018-04-27T04:19:29.284Z,3.45
2018-04-27T04:20:29.504Z,3.4
2018-04-27T04:21:29.255Z,3.4
2018-04-27T04:22:29.507Z,3.43
2018-04-27T04:23:29.481Z,3.48
2018-04-27T04:24:28.948Z,3.54
2018-04-27T04:25:29.193Z,3.57
2018-04-27T04:26:29.183Z,3.51
2018-04-27T04:27:29.438Z,3.63
2018-04-27T04:28:29.150Z,3.66
2018-04-27T04:29:29.143Z,3.72
2018-04-27T04:30:29.371Z,3.69
2018-04-27T04:31:29.361Z,3.75
2018-04-27T04:32:29.551Z,3.75
2018-04-27T04:33:29.076Z,3.84
2018-04-27T04:34:28.798Z,3.81
2018-04-27T04:35:29.046Z,3.92
2018-04-27T04:36:29.289Z,3.93
2018-04-27T04:37:28.767Z,3.89
2018-04-27T04:38:29.030Z,4.02
2018-04-27T04:39:29.250Z,3.99
2018-04-27T04:40:29.226Z,4.14
2018-04-27T04:41:29.217Z,4.18
2018-04-27T04:42:29.197Z,4.2
2018-04-27T04:43:29.184Z,4.21
2018-04-27T04:44:28.910Z,4.2
2018-04-27T04:45:29.170Z,4.22
2018-04-27T04:46:29.158Z,4.2
2018-04-27T04:47:29.134Z,4.29
2018-04-27T04:48:28.854Z,4.36
2018-04-27T04:49:28.843Z,4.29
2018-04-27T04:50:28.821Z,4.33
2018-04-27T04:51:28.811Z,4.44
2018-04-27T04:52:29.295Z,4.39
2018-04-27T04:53:28.519Z,4.54
2018-04-27T04:54:28.763Z,4.56
2018-04-27T04:55:29.047Z,4.51
2018-04-27T04:56:29.067Z,4.47
2018-04-27T04:57:28.726Z,4.64
2018-04-27T04:58:28.706Z,4.68
2018-04-27T04:59:28.434Z,4.69
2018-04-27T05:00:28.694Z,4.64
2018-04-27T05:01:29.143Z,4.66
2018-04-27T05:02:28.914Z,4.71
2018-04-27T05:03:28.896Z,4.74
2018-04-27T05:04:28.623Z,4.84
2018-04-27T05:05:28.613Z,4.78
2018-04-27T05:06:28.901Z,4.85
2018-04-27T05:07:29.071Z,4.92
2018-04-27T05:08:28.830Z,4.97
2018-04-27T05:09:28.550Z,4.95
2018-04-27T05:10:28.544Z,4.91
2018-04-27T05:11:28.820Z,4.92
2018-04-27T05:12:28.767Z,4.97
2018-04-27T05:13:28.496Z,5.05
2018-04-27T05:14:28.228Z,5.05
2018-04-27T05:15:28.731Z,5.03
2018-04-27T05:16:28.456Z,5.08
2018-04-27T05:17:28.711Z,5.13
2018-04-27T05:18:28.452Z,5.18
2018-04-27T05:19:28.673Z,5.28
2018-04-27T05:20:28.399Z,5.23
2018-04-27T05:21:28.646Z,5.26
2018-04-27T05:22:28.375Z,5.34
2018-04-27T05:23:28.620Z,5.42
2018-04-27T05:24:28.344Z,5.37
2018-04-27T05:25:28.329Z,5.54
2018-04-27T05:26:28.573Z,5.63
2018-04-27T05:27:28.301Z,5.73
2018-04-27T05:28:28.544Z,5.69
2018-04-27T05:29:28.478Z,5.81
2018-04-27T05:30:28.260Z,5.84
2018-04-27T05:31:28.510Z,6
2018-04-27T05:32:28.487Z,5.99
2018-04-27T05:33:28.224Z,5.99
2018-04-27T05:34:28.474Z,6.1
2018-04-27T05:35:28.191Z,6.13
2018-04-27T05:36:28.436Z,6.09
2018-04-27T05:37:28.431Z,6.28
2018-04-27T05:38:28.157Z,6.29
2018-04-27T05:39:27.879Z,6.39
2018-04-27T05:40:28.122Z,6.46
2018-04-27T05:41:28.379Z,6.43
2018-04-27T05:42:28.354Z,6.49
2018-04-27T05:43:27.824Z,6.62
2018-04-27T05:44:28.074Z,6.61
2018-04-27T05:45:28.317Z,6.7
2018-04-27T05:46:28.301Z,6.8
2018-04-27T05:47:28.295Z,6.94
2018-04-27T05:48:28.393Z,7
2018-04-27T05:49:28.266Z,7
2018-04-27T05:50:28.027Z,7.16
2018-04-27T05:51:27.980Z,7.22
2018-04-27T05:52:28.226Z,7.23
2018-04-27T05:53:27.955Z,7.36
2018-04-27T05:54:28.202Z,7.34
2018-04-27T05:55:27.938Z,7.39
2018-04-27T05:56:28.180Z,7.41
2018-04-27T05:57:27.648Z,7.41
2018-04-27T05:58:27.889Z,7.51
2018-04-27T05:59:27.625Z,7.54
2018-04-27T06:00:27.864Z,7.51
2018-04-27T06:01:28.120Z,7.63
2018-04-27T06:02:28.109Z,7.64
2018-04-27T06:03:27.830Z,7.8
2018-04-27T06:04:27.574Z,7.92
2018-04-27T06:05:27.549Z,8.06
2018-04-27T06:06:27.794Z,8.22
2018-04-27T06:07:28.048Z,8.31
2018-04-27T06:08:27.769Z,8.52
2018-04-27T06:09:28.030Z,8.74
2018-04-27T06:10:28.006Z,8.92
2018-04-27T06:11:27.743Z,8.97
2018-04-27T06:12:27.721Z,9.14
2018-04-27T06:13:27.721Z,9.26
2018-04-27T06:14:27.699Z,9.3
2018-04-27T06:15:27.687Z,9.47
2018-04-27T06:16:27.417Z,9.63
2018-04-27T06:17:27.924Z,9.67
2018-04-27T06:18:27.942Z,9.7
2018-04-27T06:19:27.909Z,9.74
2018-04-27T06:20:27.900Z,9.78
2018-04-27T06:21:27.619Z,9.88
2018-04-27T06:22:27.875Z,9.95
2018-04-27T06:23:27.603Z,9.95
2018-04-27T06:24:27.928Z,9.96
2018-04-27T06:25:27.596Z,9.92
2018-04-27T06:26:27.570Z,9.95
2018-04-27T06:27:27.810Z,10.08
2018-04-27T06:28:27.810Z,10.02
2018-04-27T06:29:27.545Z,10.15
2018-04-27T06:30:27.526Z,10.29
2018-04-27T06:31:27.785Z,10.58
2018-04-27T06:32:27.529Z,10.79
2018-04-27T06:33:27.788Z,10.97
2018-04-27T06:34:27.800Z,11.08
2018-04-27T06:35:27.469Z,11.35
2018-04-27T06:36:27.719Z,11.57
2018-04-27T06:37:27.457Z,11.67
2018-04-27T06:38:27.701Z,11.91
2018-04-27T06:39:27.883Z,12.04
2018-04-27T06:40:27.686Z,12.16
2018-04-27T06:41:27.413Z,12.22
2018-04-27T06:42:27.415Z,12.31
2018-04-27T06:43:27.652Z,12.4
2018-04-27T06:44:27.406Z,12.37
2018-04-27T06:45:27.374Z,12.59
2018-04-27T06:46:27.370Z,12.47
2018-04-27T06:47:27.357Z,12.66
2018-04-27T06:48:27.351Z,12.98
2018-04-27T06:49:27.597Z,13.28
2018-04-27T06:50:27.592Z,13.35
2018-04-27T06:51:27.602Z,13.48
2018-04-27T06:52:27.317Z,13.53
2018-04-27T06:53:27.308Z,13.62
2018-04-27T06:54:27.038Z,13.75
2018-04-27T06:55:27.033Z,13.66
2018-04-27T06:56:27.279Z,13.66
2018-04-27T06:57:27.278Z,13.7
2018-04-27T06:58:27.546Z,13.65
2018-04-27T06:59:27.791Z,13.68
2018-04-27T07:00:27.252Z,13.58
2018-04-27T07:01:27.248Z,13.6
2018-04-27T07:02:27.504Z,13.54
2018-04-27T07:03:27.493Z,13.45
2018-04-27T07:04:27.485Z,13.42
2018-04-27T07:05:27.530Z,13.57
2018-04-27T07:06:27.469Z,13.45
2018-04-27T07:07:27.477Z,13.55
2018-04-27T07:08:27.191Z,13.5
2018-04-27T07:09:27.186Z,13.57
2018-04-27T07:10:27.183Z,13.72
2018-04-27T07:11:27.430Z,13.7
2018-04-27T07:12:27.167Z,13.68
2018-04-27T07:13:27.435Z,13.66
2018-04-27T07:14:27.410Z,13.69
2018-04-27T07:15:26.884Z,13.55
2018-04-27T07:16:27.133Z,13.48
2018-04-27T07:17:27.390Z,13.5
2018-04-27T07:18:27.388Z,13.47
2018-04-27T07:19:27.113Z,13.53
2018-04-27T07:20:27.108Z,13.55
2018-04-27T07:21:27.579Z,13.48
2018-04-27T07:22:27.094Z,13.47
2018-04-27T07:23:27.088Z,13.37
2018-04-27T07:24:26.821Z,13.31
2018-04-27T07:25:27.074Z,13.36
2018-04-27T07:26:27.325Z,13.25
2018-04-27T07:27:27.582Z,13.35
2018-04-27T07:28:27.053Z,13.32
2018-04-27T07:29:27.040Z,13.36
2018-04-27T07:30:27.043Z,13.29
2018-04-27T07:31:27.029Z,13.25
2018-04-27T07:32:26.765Z,13.17
2018-04-27T07:33:27.272Z,13.25
2018-04-27T07:34:27.012Z,13.53
2018-04-27T07:35:27.262Z,14.16
2018-04-27T07:36:27.272Z,14.63
2018-04-27T07:37:26.994Z,15.2
2018-04-27T07:38:27.234Z,15.63
2018-04-27T07:39:27.238Z,16.18
2018-04-27T07:40:27.225Z,16.48
2018-04-27T07:41:27.219Z,16.73
2018-04-27T07:42:27.235Z,17.1
2018-04-27T07:43:26.688Z,17.09
2018-04-27T07:44:27.201Z,17.15
2018-04-27T07:45:26.935Z,17.07
2018-04-27T07:46:26.945Z,17.13
2018-04-27T07:47:27.184Z,17.13
2018-04-27T07:48:26.928Z,17.12
2018-04-27T07:49:26.910Z,17
2018-04-27T07:50:27.163Z,16.95
2018-04-27T07:51:26.906Z,16.76
2018-04-27T07:52:27.156Z,16.67
2018-04-27T07:53:26.886Z,16.58
2018-04-27T07:54:27.104Z,16.52
2018-04-27T07:55:27.061Z,16.39
2018-04-27T07:56:26.898Z,16.29
2018-04-27T07:57:27.122Z,16.27
2018-04-27T07:58:27.120Z,16.25
2018-04-27T07:59:27.129Z,16.34
2018-04-27T08:00:26.908Z,16.44
2018-04-27T08:01:27.102Z,16.39
2018-04-27T08:02:26.974Z,16.34
2018-04-27T08:03:26.833Z,16.3
2018-04-27T08:04:26.835Z,16.32
2018-04-27T08:05:27.080Z,16.14
2018-04-27T08:06:27.094Z,16.08
2018-04-27T08:07:27.070Z,15.93
2018-04-27T08:08:27.064Z,16.02
2018-04-27T08:09:27.059Z,15.93
2018-04-27T08:10:27.056Z,16.14
2018-04-27T08:11:26.904Z,16.1
2018-04-27T08:12:26.531Z,16.1
2018-04-27T08:13:27.039Z,16.26
2018-04-27T08:14:27.039Z,16.21
2018-04-27T08:15:27.024Z,16.34
2018-04-27T08:16:27.024Z,16.26
2018-04-27T08:17:26.785Z,16.36
2018-04-27T08:18:27.015Z,16.37
2018-04-27T08:19:26.770Z,16.44
2018-04-27T08:20:26.488Z,16.49
2018-04-27T08:21:26.739Z,16.59
2018-04-27T08:22:27.011Z,16.72
2018-04-27T08:23:26.991Z,16.69
2018-04-27T08:24:26.545Z,16.62
2018-04-27T08:25:26.468Z,16.44
2018-04-27T08:26:26.723Z,16.42
2018-04-27T08:27:26.715Z,16.32
2018-04-27T08:28:26.989Z,16.27
2018-04-27T08:29:26.969Z,16.18
2018-04-27T08:30:26.445Z,16.22
2018-04-27T08:31:26.952Z,16.18
2018-04-27T08:32:26.950Z,16.13
2018-04-27T08:33:26.690Z,16.16
2018-04-27T08:34:26.686Z,16.27
2018-04-27T08:35:26.958Z,16.33
2018-04-27T08:36:26.931Z,16.26
2018-04-27T08:37:26.928Z,16.32
2018-04-27T08:38:26.928Z,16.45
2018-04-27T08:39:26.887Z,16.54
2018-04-27T08:40:26.661Z,16.59
2018-04-27T08:41:26.658Z,16.57
2018-04-27T08:42:26.911Z,16.55
2018-04-27T08:43:26.644Z,16.3
2018-04-27T08:44:26.383Z,16.33
2018-04-27T08:45:26.635Z,16.27
2018-04-27T08:46:26.637Z,16.07
2018-04-27T08:47:26.891Z,16.02
2018-04-27T08:48:26.886Z,15.73
2018-04-27T08:49:26.881Z,15.65
2018-04-27T08:50:27.222Z,15.59
2018-04-27T08:51:26.873Z,15.6
2018-04-27T08:52:26.870Z,15.6
2018-04-27T08:53:26.600Z,15.81
2018-04-27T08:54:26.594Z,15.86
2018-04-27T08:55:26.596Z,15.93
2018-04-27T08:56:26.881Z,15.96
2018-04-27T08:57:26.864Z,15.91
2018-04-27T08:58:26.574Z,15.96
2018-04-27T08:59:26.571Z,15.93
2018-04-27T09:00:26.827Z,16.08
2018-04-27T09:01:26.820Z,16.06
2018-04-27T09:02:26.556Z,15.96
2018-04-27T09:03:26.828Z,15.89
2018-04-27T09:04:26.547Z,15.91
2018-04-27T09:05:26.806Z,15.91
2018-04-27T09:06:26.605Z,15.75
2018-04-27T09:07:26.533Z,15.74
2018-04-27T09:08:27.210Z,15.7
2018-04-27T09:09:26.786Z,15.74
2018-04-27T09:10:26.792Z,15.83
2018-04-27T09:11:26.517Z,15.95
2018-04-27T09:12:26.774Z,15.93
2018-04-27T09:13:26.504Z,16.02
2018-04-27T09:14:26.762Z,15.99
2018-04-27T09:15:26.237Z,15.89
2018-04-27T09:16:26.523Z,15.98
2018-04-27T09:17:26.748Z,15.98
2018-04-27T09:18:26.477Z,16.08
2018-04-27T09:19:26.475Z,16.26
2018-04-27T09:20:26.732Z,16.29
2018-04-27T09:21:26.723Z,16.3
2018-04-27T09:22:26.718Z,16.27
2018-04-27T09:23:26.454Z,16.33
2018-04-27T09:24:26.705Z,16.32
2018-04-27T09:25:26.706Z,16.42
2018-04-27T09:26:26.457Z,16.29
2018-04-27T09:27:26.434Z,16.26
2018-04-27T09:28:26.430Z,16.32
2018-04-27T09:29:26.428Z,16.37
2018-04-27T09:30:26.422Z,16.27
2018-04-27T09:31:26.417Z,16.32
2018-04-27T09:32:26.882Z,16.4
2018-04-27T09:33:26.413Z,16.32
2018-04-27T09:34:26.399Z,16.27
2018-04-27T09:35:26.655Z,16.29
2018-04-27T09:36:26.395Z,16.25
2018-04-27T09:37:26.653Z,16.36
2018-04-27T09:38:26.602Z,16.37
2018-04-27T09:39:26.377Z,16.47
2018-04-27T09:40:26.628Z,16.51
2018-04-27T09:41:26.370Z,16.54
2018-04-27T09:42:26.623Z,16.51
2018-04-27T09:43:26.368Z,16.51
2018-04-27T09:44:26.356Z,16.51
2018-04-27T09:45:26.352Z,16.54
2018-04-27T09:46:26.364Z,16.59
2018-04-27T09:47:26.614Z,16.72
2018-04-27T09:48:26.598Z,16.73
2018-04-27T09:49:26.594Z,16.92
2018-04-27T09:50:26.068Z,16.72
2018-04-27T09:51:26.326Z,16.48
2018-04-27T09:52:26.317Z,16.3
2018-04-27T09:53:26.568Z,16.27
2018-04-27T09:54:26.327Z,16.29
2018-04-27T09:55:26.588Z,16.16
2018-04-27T09:56:26.038Z,16.17
2018-04-27T09:57:26.299Z,16.22
2018-04-27T09:58:26.550Z,16.33
2018-04-27T09:59:26.542Z,16.25
2018-04-27T10:00:26.760Z,16.42
2018-04-27T10:01:26.539Z,16.36
2018-04-27T10:02:26.533Z,16.29
2018-04-27T10:03:26.523Z,16.4
2018-04-27T10:04:26.271Z,16.29
2018-04-27T10:05:26.515Z,16.29
2018-04-27T10:06:25.991Z,16.44
2018-04-27T10:07:26.507Z,16.42
2018-04-27T10:08:25.988Z,16.54
2018-04-27T10:09:26.238Z,16.72
2018-04-27T10:10:26.492Z,16.67
2018-04-27T10:11:26.229Z,16.94
2018-04-27T10:12:26.226Z,17.07
2018-04-27T10:13:25.961Z,17.2
2018-04-27T10:14:25.956Z,17.21
2018-04-27T10:15:26.476Z,17.17
2018-04-27T10:16:26.468Z,17.21
2018-04-27T10:17:26.467Z,17.21
2018-04-27T10:18:26.469Z,17.12
2018-04-27T10:19:26.200Z,17.13
2018-04-27T10:20:26.576Z,17.06
2018-04-27T10:21:26.446Z,17.2
2018-04-27T10:22:26.187Z,17.28
2018-04-27T10:23:26.444Z,17.38
2018-04-27T10:24:25.918Z,17.36
2018-04-27T10:25:26.171Z,17.5
2018-04-27T10:26:26.186Z,17.55
2018-04-27T10:27:26.162Z,17.57
2018-04-27T10:28:26.158Z,17.47
2018-04-27T10:29:26.160Z,17.52
2018-04-27T10:30:26.410Z,17.52
2018-04-27T10:31:26.489Z,17.55
2018-04-27T10:32:26.407Z,17.52
2018-04-27T10:33:26.144Z,17.49
2018-04-27T10:34:26.150Z,17.45
2018-04-27T10:35:26.393Z,17.25
2018-04-27T10:36:26.391Z,17.18
2018-04-27T10:37:26.387Z,17.18
2018-04-27T10:38:26.130Z,17.22
2018-04-27T10:39:26.117Z,17.24
2018-04-27T10:40:26.386Z,17.21
2018-04-27T10:41:26.384Z,17.27
2018-04-27T10:42:26.109Z,17.25
2018-04-27T10:43:26.378Z,17.25
2018-04-27T10:44:26.105Z,17.35
2018-04-27T10:45:26.115Z,17.38
2018-04-27T10:46:26.353Z,17.36
2018-04-27T10:47:26.087Z,17.42
2018-04-27T10:48:26.339Z,17.3
2018-04-27T10:49:26.356Z,17.39
2018-04-27T10:50:26.135Z,17.35
2018-04-27T10:51:26.327Z,17.32
2018-04-27T10:52:26.324Z,17.31
2018-04-27T10:53:26.322Z,17.38
2018-04-27T10:54:26.066Z,17.42
2018-04-27T10:55:26.073Z,17.5
2018-04-27T10:56:26.052Z,17.46
2018-04-27T10:57:26.306Z,17.35
2018-04-27T10:58:26.041Z,17.43
2018-04-27T10:59:26.339Z,17.47
2018-04-27T11:00:26.050Z,17.46
2018-04-27T11:01:26.423Z,17.27
2018-04-27T11:02:26.293Z,17.24
2018-04-27T11:03:26.536Z,17.18
2018-04-27T11:04:26.310Z,17.15
2018-04-27T11:05:26.301Z,17.27
2018-04-27T11:06:26.016Z,17.42
2018-04-27T11:07:26.276Z,17.49
2018-04-27T11:08:26.275Z,17.62
2018-04-27T11:09:26.269Z,17.6
2018-04-27T11:10:26.221Z,17.54
2018-04-27T11:11:25.998Z,17.58
2018-04-27T11:12:26.311Z,17.77
2018-04-27T11:13:26.254Z,17.73
2018-04-27T11:14:25.992Z,17.66
2018-04-27T11:15:26.246Z,17.55
2018-04-27T11:16:26.004Z,17.55
2018-04-27T11:17:26.238Z,17.47
2018-04-27T11:18:25.979Z,17.58
2018-04-27T11:19:26.231Z,17.55
2018-04-27T11:20:26.222Z,17.57
2018-04-27T11:21:26.220Z,17.58
2018-04-27T11:22:26.222Z,17.5
2018-04-27T11:23:26.215Z,17.49
2018-04-27T11:24:25.956Z,17.54
2018-04-27T11:25:25.955Z,17.73
2018-04-27T11:26:26.202Z,17.65
2018-04-27T11:27:26.236Z,17.57
2018-04-27T11:28:25.940Z,17.54
2018-04-27T11:29:25.937Z,17.54
2018-04-27T11:30:25.935Z,17.43
2018-04-27T11:31:26.185Z,17.35
2018-04-27T11:32:26.189Z,17.43
2018-04-27T11:33:26.190Z,17.3
2018-04-27T11:34:26.178Z,17.35
2018-04-27T11:35:25.917Z,17.38
2018-04-27T11:36:25.921Z,17.25
2018-04-27T11:37:25.907Z,17.4
2018-04-27T11:38:25.647Z,17.25
2018-04-27T11:39:25.923Z,17.18
2018-04-27T11:40:25.905Z,17.15
2018-04-27T11:41:26.260Z,17.21
2018-04-27T11:42:26.140Z,17.22
2018-04-27T11:43:25.883Z,17.24
2018-04-27T11:44:26.142Z,17.28
2018-04-27T11:45:25.871Z,17.3
2018-04-27T11:46:26.131Z,17.32
2018-04-27T11:47:25.869Z,17.25
2018-04-27T11:48:26.327Z,17.2
2018-04-27T11:49:26.127Z,17.15
2018-04-27T11:50:25.871Z,17.1
2018-04-27T11:51:25.847Z,17.12
2018-04-27T11:52:26.107Z,17.12
2018-04-27T11:53:26.207Z,17.09
2018-04-27T11:54:26.093Z,17.17
2018-04-27T11:55:26.277Z,17.18
2018-04-27T11:56:25.843Z,17.25
2018-04-27T11:57:25.821Z,17.39
2018-04-27T11:58:26.073Z,17.27
2018-04-27T11:59:26.075Z,17.25
2018-04-27T12:00:25.811Z,17.22
2018-04-27T12:01:26.075Z,17.22
2018-04-27T12:02:25.566Z,17.06
2018-04-27T12:03:25.541Z,17.07
2018-04-27T12:04:25.796Z,17.09
2018-04-27T12:05:25.796Z,16.94
2018-04-27T12:06:26.044Z,16.92
2018-04-27T12:07:25.782Z,16.92
2018-04-27T12:08:26.054Z,16.94
2018-04-27T12:09:26.100Z,16.97
2018-04-27T12:10:25.517Z,17.12
2018-04-27T12:11:26.048Z,17.1
2018-04-27T12:12:25.781Z,17.18
2018-04-27T12:13:26.027Z,17.2
2018-04-27T12:14:26.023Z,17.15
2018-04-27T12:15:25.753Z,17.13
2018-04-27T12:16:26.011Z,17.1
2018-04-27T12:17:26.054Z,17.06
2018-04-27T12:18:25.995Z,16.99
2018-04-27T12:19:25.995Z,17.05
2018-04-27T12:20:25.471Z,17
2018-04-27T12:21:25.980Z,16.91
2018-04-27T12:22:25.814Z,16.84
2018-04-27T12:23:25.999Z,16.8
2018-04-27T12:24:25.839Z,16.82
2018-04-27T12:25:25.948Z,16.81
2018-04-27T12:26:25.968Z,16.8
2018-04-27T12:27:25.706Z,16.73
2018-04-27T12:28:25.955Z,16.76
2018-04-27T12:29:25.945Z,16.72
2018-04-27T12:30:25.944Z,16.69
2018-04-27T12:31:25.876Z,16.65
2018-04-27T12:32:25.676Z,16.67
2018-04-27T12:33:25.935Z,16.66
2018-04-27T12:34:25.930Z,16.67
2018-04-27T12:35:25.666Z,16.67
2018-04-27T12:36:25.921Z,16.7
2018-04-27T12:37:26.346Z,16.7
2018-04-27T12:38:25.672Z,16.74
2018-04-27T12:39:25.924Z,16.85
2018-04-27T12:40:25.920Z,16.8
2018-04-27T12:41:26.522Z,16.77
2018-04-27T12:42:25.897Z,16.69
2018-04-27T12:43:25.635Z,16.72
2018-04-27T12:44:25.883Z,16.72
2018-04-27T12:45:25.366Z,16.82
2018-04-27T12:46:25.877Z,16.8
2018-04-27T12:47:25.891Z,16.73
2018-04-27T12:48:25.866Z,16.77
2018-04-27T12:49:25.866Z,16.72
2018-04-27T12:50:25.604Z,16.73
2018-04-27T12:51:25.851Z,16.72
2018-04-27T12:52:25.793Z,16.76
2018-04-27T12:53:25.883Z,16.76
2018-04-27T12:54:25.839Z,16.72
2018-04-27T12:55:25.848Z,16.69
2018-04-27T12:56:25.835Z,16.66
2018-04-27T12:57:25.830Z,16.57
2018-04-27T12:58:25.844Z,16.55
2018-04-27T12:59:25.563Z,16.63
2018-04-27T13:00:25.818Z,16.51
2018-04-27T13:01:25.810Z,16.69
2018-04-27T13:02:25.293Z,16.59
2018-04-27T13:03:25.543Z,16.69
2018-04-27T13:04:25.806Z,16.63
2018-04-27T13:05:25.275Z,16.59
2018-04-27T13:06:25.529Z,16.67
2018-04-27T13:07:25.268Z,16.69
2018-04-27T13:08:25.277Z,16.73